Time;durP1;ratioP1;P1;durP2;ratioP2;P2;SDS_P1;SDS_P2;PMS_P1;PMS_P2;Temp;Humidity;BMP_temperature;BMP_pressure;BME280_temperature;BME280_humidity;BME280_pressure;Samples;Min_cycle;Max_cycle;Signal;HPM_P1;HPM_P2
2022/10/22 00:00:01;;;;;;;27.63;17.90;;;;;;;12.67;100.00;155706.50;5010044;28;20404;-81
2022/10/22 00:02:30;;;;;;;28.55;19.23;;;;;;;12.65;100.00;155701.34;5025251;28;20034;-78
2022/10/22 00:04:56;;;;;;;30.55;18.27;;;;;;;12.67;100.00;155706.50;5010677;28;20044;-80
2022/10/22 00:07:21;;;;;;;25.88;17.02;;;;;;;12.63;100.00;155697.50;5010360;28;20080;-78
2022/10/22 00:09:47;;;;;;;24.60;17.10;;;;;;;12.64;100.00;155700.09;5014512;28;20121;-79
2022/10/22 00:12:14;;;;;;;31.00;20.05;;;;;;;12.66;100.00;155705.22;5009790;28;20116;-79
2022/10/22 00:14:41;;;;;;;27.17;17.92;;;;;;;12.64;100.00;155698.81;5011022;28;20068;-78
2022/10/22 00:17:07;;;;;;;28.85;17.40;;;;;;;12.66;100.00;155705.22;5000820;28;20041;-78
2022/10/22 00:19:33;;;;;;;25.58;18.85;;;;;;;12.68;100.00;155709.09;4992725;28;20396;-80
2022/10/22 00:22:04;;;;;;;27.77;18.50;;;;;;;12.65;100.00;155702.63;5015003;28;20034;-81
2022/10/22 00:24:31;;;;;;;25.98;18.17;;;;;;;12.66;100.00;155705.22;5010476;28;20042;-79
2022/10/22 00:26:57;;;;;;;27.85;18.42;;;;;;;12.70;100.00;155714.22;4997347;28;20045;-80
2022/10/22 00:29:23;;;;;;;27.27;18.92;;;;;;;12.70;100.00;155712.94;4975213;28;20115;-79
2022/10/22 00:31:49;;;;;;;34.20;20.67;;;;;;;12.74;100.00;155723.22;5015597;28;20492;-80
2022/10/22 00:34:17;;;;;;;28.27;19.10;;;;;;;12.70;100.00;155714.22;4998669;28;20076;-79
2022/10/22 00:36:43;;;;;;;25.77;18.75;;;;;;;12.69;100.00;155710.34;5011484;28;20045;-80
2022/10/22 00:39:08;;;;;;;27.90;17.92;;;;;;;12.67;100.00;155706.50;4987472;28;20042;-79
2022/10/22 00:41:38;;;;;;;32.60;19.55;;;;;;;12.72;100.00;155719.34;5008355;28;20040;-78
2022/10/22 00:44:05;;;;;;;28.27;18.08;;;;;;;12.68;100.00;155707.75;5004397;28;20097;-80
2022/10/22 00:46:31;;;;;;;29.23;18.63;;;;;;;12.69;100.00;155711.63;4992562;28;20052;-78
2022/10/22 00:48:59;;;;;;;26.60;17.73;;;;;;;12.68;100.00;155709.09;4996905;28;20372;-80
2022/10/22 00:51:29;;;;;;;30.45;18.88;;;;;;;12.67;100.00;155706.50;5015784;28;20746;-79
2022/10/22 00:54:00;;;;;;;28.40;18.88;;;;;;;12.65;100.00;155702.63;5009023;28;20065;-78
2022/10/22 00:56:26;;;;;;;31.38;19.33;;;;;;;12.68;100.00;155709.09;4991231;28;20118;-80
2022/10/22 00:58:54;;;;;;;30.08;19.63;;;;;;;12.66;100.00;155705.22;5014582;28;20527;-79
2022/10/22 01:01:25;;;;;;;34.30;21.70;;;;;;;12.78;100.00;155734.75;4990898;28;20044;-79
2022/10/22 01:03:51;;;;;;;32.15;20.23;;;;;;;12.81;100.00;155742.47;5000656;28;20034;-79
2022/10/22 01:06:30;;;;;;;32.30;20.42;;;;;;;12.80;100.00;155739.88;4993706;28;20049;-79
2022/10/22 01:09:32;;;;;;;26.73;19.45;;;;;;;12.77;100.00;155730.88;5002760;28;20042;-78
2022/10/22 01:12:22;;;;;;;29.85;19.23;;;;;;;12.76;100.00;155729.63;5006801;28;20137;-79
2022/10/22 01:15:18;;;;;;;30.08;19.55;;;;;;;12.75;100.00;155727.06;5014873;28;20341;-81
2022/10/22 01:18:06;;;;;;;28.27;18.58;;;;;;;12.76;100.00;155728.34;5006317;28;20046;-81
2022/10/22 01:20:45;;;;;;;35.55;21.73;;;;;;;12.76;100.00;155728.34;4986268;28;20050;-79
2022/10/22 01:24:01;;;;;;;38.33;21.50;;;;;;;12.77;100.00;155732.22;5010866;28;20388;-78
2022/10/22 01:26:46;;;;;;;26.30;17.92;;;;;;;12.72;100.00;155718.09;4960029;28;20086;-76
2022/10/22 01:29:18;;;;;;;30.65;21.02;;;;;;;12.73;100.00;155721.91;5007368;28;20061;-80
2022/10/22 01:31:55;;;;;;;33.85;20.83;;;;;;;12.75;100.00;155727.06;4991986;28;20132;-79
2022/10/22 01:34:22;;;;;;;28.52;17.58;;;;;;;12.70;100.00;155714.22;5017625;28;20029;-79
2022/10/22 01:36:50;;;;;;;30.35;19.50;;;;;;;12.68;100.00;155707.75;5008618;28;20030;-80
2022/10/22 01:39:18;;;;;;;33.00;20.67;;;;;;;12.66;100.00;155705.22;4976809;28;20061;-80
2022/10/22 01:41:44;;;;;;;30.50;20.30;;;;;;;12.60;100.00;155689.81;4999027;28;20133;-80
2022/10/22 01:44:33;;;;;;;29.70;17.80;;;;;;;12.57;100.00;155680.81;4994707;28;20038;-79
2022/10/22 01:47:27;;;;;;;27.23;18.45;;;;;;;12.44;100.00;155648.69;5004633;28;20040;-80
2022/10/22 01:50:17;;;;;;;27.65;17.88;;;;;;;12.30;100.00;155614.03;5015983;28;20040;-80
2022/10/22 01:53:01;;;;;;;25.25;16.75;;;;;;;12.18;100.00;155583.19;5004232;28;20029;-79
2022/10/22 01:55:42;;;;;;;21.15;15.32;;;;;;;12.04;100.00;155549.81;5008008;28;20544;-80
2022/10/22 01:58:42;;;;;;;25.38;16.35;;;;;;;11.97;100.00;155530.56;5006102;28;20729;-78
2022/10/22 02:01:34;;;;;;;23.35;15.75;;;;;;;11.85;100.00;155502.25;4997949;28;20502;-77
2022/10/22 02:04:20;;;;;;;23.17;16.92;;;;;;;11.81;100.00;155490.66;4989017;28;20069;-80
2022/10/22 02:06:49;;;;;;;26.48;18.02;;;;;;;11.76;100.00;155477.88;4995988;28;20403;-78
2022/10/22 02:09:19;;;;;;;29.48;19.17;;;;;;;11.64;100.00;155449.63;5009375;28;20088;-78
2022/10/22 02:11:46;;;;;;;27.60;19.45;;;;;;;11.61;100.00;155440.63;4997217;28;20033;-78
2022/10/22 02:14:14;;;;;;;33.25;18.27;;;;;;;11.57;100.00;155431.63;5009662;28;20045;-79
2022/10/22 02:16:43;;;;;;;30.08;18.95;;;;;;;11.52;100.00;155417.53;4996463;28;20061;-79
2022/10/22 02:19:24;;;;;;;25.85;17.90;;;;;;;11.46;100.00;155403.41;5002734;28;20061;-80
2022/10/22 02:21:51;;;;;;;26.23;17.45;;;;;;;11.40;100.00;155389.28;5028917;28;20084;-79
2022/10/22 02:24:18;;;;;;;27.80;17.40;;;;;;;11.33;100.00;155371.31;5014757;28;20041;-80
2022/10/22 02:27:15;;;;;;;29.02;16.85;;;;;;;11.28;100.00;155359.78;5013228;28;20034;-78
2022/10/22 02:29:57;;;;;;;32.45;17.83;;;;;;;11.18;100.00;155332.81;5027306;28;20028;-79
2022/10/22 02:32:27;;;;;;;32.00;17.58;;;;;;;11.13;100.00;155321.22;5029936;28;20033;-79
2022/10/22 02:34:54;;;;;;;29.65;16.50;;;;;;;11.13;100.00;155319.97;5020591;28;20026;-78
2022/10/22 02:37:23;;;;;;;27.20;15.65;;;;;;;11.12;100.00;155318.69;4979279;28;20038;-79
2022/10/22 02:39:50;;;;;;;27.83;15.68;;;;;;;11.10;100.00;155313.56;5013849;28;20033;-79
2022/10/22 02:42:17;;;;;;;39.05;17.38;;;;;;;10.96;100.00;155278.88;4999779;28;20026;-80
2022/10/22 02:44:42;;;;;;;67.15;16.42;;;;;;;11.10;100.00;155314.81;5010999;28;20042;-79
2022/10/22 02:47:09;;;;;;;18.80;12.77;;;;;;;11.16;100.00;155328.94;4999341;28;20625;-78
2022/10/22 02:49:35;;;;;;;20.77;14.85;;;;;;;11.04;100.00;155299.44;4979084;28;20480;-77
2022/10/22 02:52:00;;;;;;;29.88;14.82;;;;;;;11.04;100.00;155299.44;5009754;28;20026;-78
2022/10/22 02:54:26;;;;;;;39.53;16.60;;;;;;;11.00;100.00;155289.19;5007628;28;20500;-79
2022/10/22 02:56:51;;;;;;;26.88;14.63;;;;;;;11.02;100.00;155294.31;4996040;28;20034;-78
2022/10/22 02:59:17;;;;;;;19.80;14.45;;;;;;;10.98;100.00;155284.06;4992266;28;20600;-78
2022/10/22 03:01:43;;;;;;;29.92;14.93;;;;;;;10.97;100.00;155280.19;5010544;28;20026;-79
2022/10/22 03:04:08;;;;;;;50.00;15.45;;;;;;;11.00;100.00;155287.88;4990971;28;20038;-79
2022/10/22 03:06:34;;;;;;;43.67;15.10;;;;;;;11.01;100.00;155291.72;4991101;28;20060;-79
2022/10/22 03:09:00;;;;;;;24.70;17.67;;;;;;;11.04;100.00;155299.44;5023618;28;20083;-79
2022/10/22 03:11:25;;;;;;;19.73;14.15;;;;;;;11.04;100.00;155299.44;5010309;28;20104;-78
2022/10/22 03:13:51;;;;;;;22.73;15.45;;;;;;;11.04;100.00;155299.44;4977214;28;20026;-78
2022/10/22 03:16:17;;;;;;;27.20;15.52;;;;;;;11.03;100.00;155295.56;5008802;28;20509;-78
2022/10/22 03:18:42;;;;;;;40.88;21.17;;;;;;;11.12;100.00;155318.69;4992670;28;20065;-78
2022/10/22 03:21:29;;;;;;;38.53;22.10;;;;;;;11.22;100.00;155344.34;4980446;28;20036;-79
2022/10/22 03:23:55;;;;;;;31.15;20.25;;;;;;;11.35;100.00;155376.44;5004269;28;20437;-79
2022/10/22 03:26:21;;;;;;;39.08;18.65;;;;;;;11.35;100.00;155375.16;5013913;28;20753;-79
2022/10/22 03:28:47;;;;;;;30.17;18.20;;;;;;;11.32;100.00;155368.75;5008582;28;20034;-80
2022/10/22 03:31:13;;;;;;;58.00;20.85;;;;;;;11.27;100.00;155355.91;4996117;28;20054;-78
2022/10/22 03:33:39;;;;;;;35.35;21.20;;;;;;;11.24;100.00;155348.19;5006406;28;20034;-79
2022/10/22 03:36:06;;;;;;;43.58;21.77;;;;;;;11.20;100.00;155337.94;5016120;28;20593;-79
2022/10/22 03:38:34;;;;;;;70.97;20.23;;;;;;;11.29;100.00;155361.03;5006344;28;20395;-80
2022/10/22 03:41:00;;;;;;;35.30;21.52;;;;;;;11.29;100.00;155362.31;5015704;28;20844;-78
2022/10/22 03:43:26;;;;;;;36.67;20.98;;;;;;;11.29;100.00;155361.03;4995488;28;20117;-80
2022/10/22 03:45:51;;;;;;;28.48;19.38;;;;;;;11.21;100.00;155341.78;4995225;28;20038;-79
2022/10/22 03:48:17;;;;;;;28.08;19.60;;;;;;;11.16;100.00;155328.94;4997008;28;20070;-79
2022/10/22 03:50:42;;;;;;;31.17;20.13;;;;;;;11.09;100.00;155310.97;4982921;28;20046;-80
2022/10/22 03:53:09;;;;;;;28.55;19.20;;;;;;;11.13;100.00;155321.22;5009001;28;20034;-79
2022/10/22 03:55:37;;;;;;;32.25;20.45;;;;;;;11.12;100.00;155318.69;4990975;28;20056;-80
2022/10/22 03:58:03;;;;;;;35.20;20.25;;;;;;;11.15;100.00;155326.41;4992063;28;20042;-79
2022/10/22 04:00:29;;;;;;;29.83;20.00;;;;;;;11.08;100.00;155308.44;4977873;28;20562;-79
2022/10/22 04:02:55;;;;;;;34.28;21.17;;;;;;;11.14;100.00;155323.81;4993543;28;20065;-79
2022/10/22 04:05:20;;;;;;;40.83;22.80;;;;;;;11.18;100.00;155334.06;5022534;28;20120;-78
2022/10/22 04:07:46;;;;;;;39.83;24.40;;;;;;;11.28;100.00;155359.78;4983079;28;20420;-79
2022/10/22 04:10:12;;;;;;;43.78;25.25;;;;;;;11.35;100.00;155375.16;5003529;28;20053;-79
2022/10/22 04:12:37;;;;;;;44.45;25.27;;;;;;;11.37;100.00;155380.28;5029900;28;20034;-80
2022/10/22 04:15:04;;;;;;;41.65;24.17;;;;;;;11.44;100.00;155398.25;5029531;28;20558;-78
2022/10/22 04:17:35;;;;;;;45.72;24.92;;;;;;;11.46;100.00;155404.66;5005395;28;20041;-79
2022/10/22 04:20:02;;;;;;;45.88;24.15;;;;;;;11.48;100.00;155408.53;4997830;28;20041;-79
2022/10/22 04:22:28;;;;;;;42.83;22.77;;;;;;;11.41;100.00;155391.81;5010964;28;20097;-79
2022/10/22 04:24:54;;;;;;;44.22;23.70;;;;;;;11.38;100.00;155382.88;5014210;28;20124;-80
2022/10/22 04:27:19;;;;;;;42.72;23.25;;;;;;;11.27;100.00;155355.91;5011057;28;20048;-80
2022/10/22 04:29:45;;;;;;;40.15;22.13;;;;;;;11.23;100.00;155346.91;5012032;28;20742;-78
2022/10/22 04:32:11;;;;;;;37.72;21.20;;;;;;;11.24;100.00;155349.47;5001610;28;20033;-78
2022/10/22 04:34:36;;;;;;;39.53;22.08;;;;;;;11.23;100.00;155346.91;5010287;28;20465;-80
2022/10/22 04:37:02;;;;;;;40.28;22.83;;;;;;;11.18;100.00;155334.06;4995286;28;20034;-80
2022/10/22 04:39:28;;;;;;;39.03;24.00;;;;;;;11.12;100.00;155317.41;5026933;28;20124;-81
2022/10/22 04:41:53;;;;;;;37.47;22.77;;;;;;;11.18;100.00;155334.06;4997307;28;20092;-79
2022/10/22 04:44:19;;;;;;;46.97;23.65;;;;;;;11.17;100.00;155331.53;5003563;28;20392;-80
2022/10/22 04:46:44;;;;;;;35.70;23.20;;;;;;;11.22;100.00;155344.34;5026011;28;20033;-79
2022/10/22 04:49:10;;;;;;;52.88;22.95;;;;;;;11.20;100.00;155339.19;5026130;28;20030;-79
2022/10/22 04:51:36;;;;;;;51.97;22.23;;;;;;;11.20;100.00;155339.19;4994710;28;20065;-79
2022/10/22 04:54:02;;;;;;;26.30;19.50;;;;;;;11.15;100.00;155326.41;4994690;28;20045;-78
2022/10/22 04:56:30;;;;;;;35.58;21.38;;;;;;;11.09;100.00;155310.97;5011651;28;20124;-82
2022/10/22 04:58:58;;;;;;;28.60;20.20;;;;;;;11.07;100.00;155305.84;5008969;28;20034;-81
2022/10/22 05:01:25;;;;;;;52.67;22.45;;;;;;;10.99;100.00;155285.31;4992417;28;20038;-79
2022/10/22 05:03:52;;;;;;;31.70;21.75;;;;;;;10.98;100.00;155284.06;4980866;28;20053;-79
2022/10/22 05:06:19;;;;;;;50.50;23.92;;;;;;;10.98;100.00;155284.06;4992444;28;20073;-80
2022/10/22 05:08:46;;;;;;;33.28;22.27;;;;;;;11.04;100.00;155299.44;5013378;28;20033;-80
2022/10/22 05:11:14;;;;;;;32.03;21.38;;;;;;;11.07;100.00;155307.09;5007143;28;20038;-80
2022/10/22 05:13:40;;;;;;;29.65;22.05;;;;;;;10.99;100.00;155285.31;4984262;28;20038;-80
2022/10/22 05:16:06;;;;;;;30.63;20.42;;;;;;;10.98;100.00;155284.06;4994890;28;20125;-80
2022/10/22 05:18:40;;;;;;;24.73;18.98;;;;;;;10.94;100.00;155272.47;4992110;28;20068;-79
2022/10/22 05:21:14;;;;;;;23.38;19.15;;;;;;;10.95;100.00;155276.34;5015347;28;20025;-80
2022/10/22 05:23:41;;;;;;;25.85;19.63;;;;;;;10.91;100.00;155266.06;5009604;28;20112;-80
2022/10/22 05:26:09;;;;;;;25.70;19.58;;;;;;;10.88;100.00;155259.63;4997495;28;20041;-80
2022/10/22 05:28:35;;;;;;;30.50;19.05;;;;;;;10.82;100.00;155244.25;4996039;28;20076;-79
2022/10/22 05:31:02;;;;;;;25.83;19.75;;;;;;;10.80;100.00;155239.13;4983573;28;20037;-79
2022/10/22 05:33:30;;;;;;;31.63;21.17;;;;;;;10.83;100.00;155245.50;5026446;28;20033;-79
2022/10/22 05:35:56;;;;;;;44.20;21.50;;;;;;;10.85;100.00;155250.66;5002018;28;20034;-80
2022/10/22 05:38:22;;;;;;;34.85;21.25;;;;;;;10.87;100.00;155255.81;5010533;28;20033;-80
2022/10/22 05:40:58;;;;;;;33.85;22.67;;;;;;;10.88;100.00;155258.34;4996311;28;20052;-79
2022/10/22 05:43:23;;;;;;;35.33;23.42;;;;;;;10.87;100.00;155257.09;5011092;28;20109;-80
2022/10/22 05:45:49;;;;;;;36.40;24.25;;;;;;;10.90;100.00;155263.50;5010404;28;20794;-78
2022/10/22 05:48:15;;;;;;;37.65;23.05;;;;;;;10.90;100.00;155263.50;4992446;28;20372;-78
2022/10/22 05:50:40;;;;;;;41.10;23.85;;;;;;;10.89;100.00;155260.94;5011293;28;20037;-79
2022/10/22 05:53:06;;;;;;;47.63;26.40;;;;;;;10.84;100.00;155248.09;5009903;28;20121;-81
2022/10/22 05:55:35;;;;;;;37.45;24.52;;;;;;;10.89;100.00;155262.22;4987191;28;20037;-79
2022/10/22 05:58:02;;;;;;;36.58;23.83;;;;;;;10.84;100.00;155248.09;5006320;28;20034;-77
2022/10/22 06:00:28;;;;;;;43.47;24.95;;;;;;;10.76;100.00;155227.59;5011821;28;20460;-80
2022/10/22 06:02:54;;;;;;;41.63;25.15;;;;;;;10.76;100.00;155228.88;5010063;28;20149;-79
2022/10/22 06:05:19;;;;;;;43.67;25.48;;;;;;;10.74;100.00;155223.72;5016619;28;20041;-79
2022/10/22 06:07:45;;;;;;;43.13;25.55;;;;;;;10.67;100.00;155207.03;5011211;28;20041;-80
2022/10/22 06:10:17;;;;;;;36.60;23.77;;;;;;;10.66;100.00;155204.50;5002449;28;20121;-78
2022/10/22 06:12:43;;;;;;;43.95;26.17;;;;;;;10.61;100.00;155191.66;5010919;28;20026;-79
2022/10/22 06:15:11;;;;;;;42.17;25.88;;;;;;;10.61;100.00;155191.66;4994743;28;20083;-79
2022/10/22 06:17:36;;;;;;;43.28;25.70;;;;;;;10.57;100.00;155180.06;4992924;28;20060;-80
2022/10/22 06:20:02;;;;;;;42.67;25.20;;;;;;;10.52;100.00;155168.56;5010465;28;20453;-80
2022/10/22 06:22:28;;;;;;;46.50;27.00;;;;;;;10.61;100.00;155191.66;5009992;28;20033;-80
2022/10/22 06:24:53;;;;;;;59.33;29.33;;;;;;;10.58;100.00;155182.66;5003504;28;20895;-80
2022/10/22 06:27:19;;;;;;;43.72;26.05;;;;;;;10.51;100.00;155166.00;4996460;28;20044;-79
2022/10/22 06:29:45;;;;;;;63.58;30.27;;;;;;;10.59;100.00;155186.53;5010983;28;20072;-79
2022/10/22 06:32:10;;;;;;;50.70;29.02;;;;;;;10.63;100.00;155196.78;5026939;28;20092;-80
2022/10/22 06:34:36;;;;;;;47.80;28.20;;;;;;;10.68;100.00;155209.63;5008338;28;20092;-80
2022/10/22 06:37:02;;;;;;;45.85;26.05;;;;;;;10.68;100.00;155208.31;4993516;28;20052;-79
2022/10/22 06:39:27;;;;;;;48.65;27.58;;;;;;;10.69;100.00;155212.16;4992832;28;20038;-80
2022/10/22 06:41:53;;;;;;;58.05;30.60;;;;;;;10.73;100.00;155219.88;4991754;28;20041;-79
2022/10/22 06:44:19;;;;;;;48.45;28.58;;;;;;;10.78;100.00;155234.00;4999433;28;20125;-80
2022/10/22 06:46:44;;;;;;;44.33;26.73;;;;;;;10.79;100.00;155235.25;5000406;28;20033;-80
2022/10/22 06:49:13;;;;;;;40.97;26.27;;;;;;;10.82;100.00;155244.25;5016711;28;20069;-79
2022/10/22 06:51:39;;;;;;;43.25;27.33;;;;;;;10.84;100.00;155248.09;5004284;28;20121;-80
2022/10/22 06:54:05;;;;;;;43.17;26.65;;;;;;;10.85;100.00;155250.66;5026757;28;20121;-78
2022/10/22 06:56:30;;;;;;;46.20;25.88;;;;;;;10.84;100.00;155248.09;5008105;28;20089;-78
2022/10/22 06:58:57;;;;;;;57.80;27.70;;;;;;;10.90;100.00;155264.75;5028295;28;20399;-79
2022/10/22 07:01:30;;;;;;;44.10;26.40;;;;;;;10.90;100.00;155264.75;5017653;28;20495;-79
2022/10/22 07:03:55;;;;;;;;;;;;;;;10.93;100.00;155269.94;5012002;28;20593;-78
2022/10/22 07:06:22;;;;;;;46.47;25.65;;;;;;;10.95;100.00;155276.34;5010094;28;19913;-78
2022/10/22 07:08:48;;;;;;;43.70;26.60;;;;;;;10.97;100.00;155281.47;4996522;28;20533;-79
2022/10/22 07:11:17;;;;;;;40.45;24.92;;;;;;;11.04;100.00;155299.44;5003297;28;20041;-80
2022/10/22 07:13:44;;;;;;;41.00;25.48;;;;;;;11.03;100.00;155296.84;5029892;28;20136;-81
2022/10/22 07:16:10;;;;;;;70.50;27.23;;;;;;;11.07;100.00;155305.84;5010971;28;20092;-78
2022/10/22 07:18:37;;;;;;;39.67;25.20;;;;;;;11.09;100.00;155310.97;5011913;28;20042;-79
2022/10/22 07:21:04;;;;;;;40.42;24.90;;;;;;;11.14;100.00;155323.81;5011399;28;20061;-78
2022/10/22 07:23:30;;;;;;;36.10;23.70;;;;;;;11.19;100.00;155335.34;5026943;28;20034;-79
2022/10/22 07:25:56;;;;;;;38.90;24.90;;;;;;;11.19;100.00;155335.34;5009923;28;20040;-79
2022/10/22 07:28:21;;;;;;;41.85;23.90;;;;;;;11.26;100.00;155354.63;5018828;28;20046;-80
2022/10/22 07:30:47;;;;;;;39.08;23.75;;;;;;;11.29;100.00;155362.31;4996691;28;20034;-80
2022/10/22 07:33:13;;;;;;;37.50;24.27;;;;;;;11.38;100.00;155382.88;5012900;28;20469;-79
2022/10/22 07:35:40;;;;;;;36.95;24.02;;;;;;;11.41;100.00;155390.56;5002103;28;20041;-80
2022/10/22 07:38:07;;;;;;;36.95;23.52;;;;;;;11.46;100.00;155404.66;5006721;28;20552;-80
2022/10/22 07:40:33;;;;;;;38.08;23.98;;;;;;;11.52;100.00;155417.53;5003309;28;20571;-78
2022/10/22 07:42:59;;;;;;;35.53;23.30;;;;;;;11.68;100.00;155459.88;5016305;28;20073;-79
2022/10/22 07:45:25;;;;;;;34.17;23.98;;;;;;;11.96;100.00;155529.28;5013902;28;20057;-79
2022/10/22 07:47:51;;;;;;;38.35;25.50;;;;;;;12.12;100.00;155567.78;5011245;28;20077;-80
2022/10/22 07:50:16;;;;;;;38.15;24.38;;;;;;;12.31;100.00;155615.31;5016041;28;20591;-79
2022/10/22 07:52:42;;;;;;;33.13;21.63;;;;;;;12.37;100.00;155631.97;5013968;28;20037;-80
2022/10/22 07:55:08;;;;;;;27.40;20.77;;;;;;;12.46;100.00;155653.84;5013855;28;20425;-80
2022/10/22 07:57:35;;;;;;;32.30;21.58;;;;;;;12.66;100.00;155703.94;4997135;28;20034;-80
2022/10/22 08:00:04;;;;;;;30.05;20.65;;;;;;;12.80;100.00;155739.88;5013237;28;20097;-79
2022/10/22 08:02:37;;;;;;;34.15;21.95;;;;;;;12.86;100.00;155754.03;5014380;28;20044;-80
2022/10/22 08:05:03;;;;;;;32.42;21.35;;;;;;;12.97;100.00;155782.28;4995114;28;20034;-80
2022/10/22 08:07:29;;;;;;;32.85;22.33;;;;;;;13.14;100.00;155823.41;4995659;28;20118;-80
2022/10/22 08:09:54;;;;;;;29.20;21.55;;;;;;;13.31;100.00;155867.16;5004552;28;20041;-79
2022/10/22 08:12:20;;;;;;;32.95;20.50;;;;;;;13.39;100.00;155886.41;5011771;28;20044;-79
2022/10/22 08:14:45;;;;;;;25.60;18.75;;;;;;;13.60;100.00;155939.16;4996723;28;20146;-81
2022/10/22 08:17:11;;;;;;;27.25;18.05;;;;;;;13.74;100.00;155973.84;5005434;28;20490;-78
2022/10/22 08:19:37;;;;;;;24.95;17.33;;;;;;;13.77;100.00;155982.84;5016018;28;20100;-80
2022/10/22 08:22:03;;;;;;;21.40;17.23;;;;;;;13.95;100.00;156027.81;5000441;28;20033;-80
2022/10/22 08:24:28;;;;;;;24.35;17.92;;;;;;;13.85;100.00;156000.84;5007399;28;20061;-79
2022/10/22 08:26:55;;;;;;;23.48;17.08;;;;;;;14.10;100.00;156063.84;5002605;28;20038;-77
2022/10/22 08:29:25;;;;;;;23.08;16.50;;;;;;;14.16;100.00;156080.53;5001726;28;20035;-78
2022/10/22 08:31:52;;;;;;;20.42;16.50;;;;;;;14.26;100.00;156105.00;5018550;28;20034;-79
2022/10/22 08:34:18;;;;;;;26.85;16.75;;;;;;;14.39;100.00;156137.09;5010591;28;20042;-78
2022/10/22 08:36:44;;;;;;;20.75;15.88;;;;;;;14.50;100.00;156164.13;5017187;28;20038;-79
2022/10/22 08:39:09;;;;;;;23.75;15.38;;;;;;;14.52;100.00;156170.59;5025427;28;20038;-80
2022/10/22 08:41:57;;;;;;;20.58;15.15;;;;;;;14.56;100.00;156179.53;4989610;28;20132;-80
2022/10/22 08:44:37;;;;;;;20.77;14.73;;;;;;;14.62;100.00;156195.06;4992882;28;20387;-79
2022/10/22 08:47:31;;;;;;;21.33;14.88;;;;;;;14.84;100.00;156250.34;4999067;28;20077;-80
2022/10/22 08:49:59;;;;;;;18.98;13.32;;;;;;;14.98;100.00;156285.09;4999386;28;20115;-80
2022/10/22 08:52:25;;;;;;;20.58;13.20;;;;;;;14.92;100.00;156270.94;5000425;28;20037;-79
2022/10/22 08:54:55;;;;;;;18.08;11.57;;;;;;;14.88;100.00;156260.66;5030634;28;20026;-78
2022/10/22 08:57:38;;;;;;;18.65;11.52;;;;;;;14.96;100.00;156279.97;5019048;28;20046;-80
2022/10/22 09:00:04;;;;;;;16.23;10.80;;;;;;;15.12;100.00;156321.09;5012623;28;20034;-80
2022/10/22 09:02:56;;;;;;;15.95;10.27;;;;;;;15.15;100.00;156327.56;4982128;28;20045;-80
2022/10/22 09:05:46;;;;;;;13.88;9.88;;;;;;;15.10;100.00;156315.94;5020856;28;20052;-80
2022/10/22 09:08:15;;;;;;;14.77;10.07;;;;;;;15.11;100.00;156317.28;4994667;28;20050;-80
2022/10/22 09:11:08;;;;;;;16.95;9.82;;;;;;;15.32;100.00;156370.00;4997181;28;20045;-81
2022/10/22 09:13:33;;;;;;;12.80;9.00;;;;;;;15.41;100.00;156391.84;4997413;28;20176;-80
2022/10/22 09:16:12;;;;;;;15.98;9.15;;;;;;;15.45;100.00;156403.47;5004192;28;20288;-78
2022/10/22 09:19:01;;;;;;;15.02;8.20;;;;;;;15.61;100.00;156443.34;5027493;28;20030;-80
2022/10/22 09:21:42;;;;;;;13.07;7.47;;;;;;;15.65;100.00;156453.66;5014603;28;20033;-80
2022/10/22 09:24:19;;;;;;;15.57;7.90;;;;;;;15.66;100.00;156456.22;4995772;28;20030;-79
2022/10/22 09:26:48;;;;;;;15.50;7.25;;;;;;;15.70;100.00;156465.22;4995212;28;20232;-80
2022/10/22 09:29:19;;;;;;;16.80;7.80;;;;;;;15.71;100.00;156469.09;4998291;28;20044;-81
2022/10/22 09:31:45;;;;;;;13.82;7.28;;;;;;;15.72;100.00;156470.38;5014750;28;20119;-81
2022/10/22 09:34:14;;;;;;;11.68;6.38;;;;;;;15.82;100.00;156494.88;5018499;28;20090;-80
2022/10/22 09:36:40;;;;;;;14.77;7.20;;;;;;;15.83;100.00;156498.72;4997067;28;20030;-81
2022/10/22 09:39:21;;;;;;;13.48;6.60;;;;;;;15.92;100.00;156521.91;4994799;28;20049;-79
2022/10/22 09:41:47;;;;;;;11.40;6.20;;;;;;;15.95;100.00;156529.66;5025506;28;20037;-80
2022/10/22 09:44:12;;;;;;;13.52;5.85;;;;;;;15.89;100.00;156514.16;4994308;28;20045;-79
2022/10/22 09:46:44;;;;;;;15.18;5.82;;;;;;;16.02;100.00;156545.09;4995172;28;20034;-79
2022/10/22 09:49:13;;;;;;;13.93;6.03;;;;;;;16.09;100.00;156564.38;5028922;28;20034;-81
2022/10/22 09:51:53;;;;;;;9.23;4.80;;;;;;;16.19;100.00;156587.56;5012248;28;20033;-82
2022/10/22 09:54:43;;;;;;;10.57;5.07;;;;;;;16.26;100.00;156605.59;4992254;28;20504;-81
2022/10/22 09:57:08;;;;;;;9.43;4.30;;;;;;;16.31;100.00;156618.44;4994137;28;20044;-81
2022/10/22 09:59:41;;;;;;;10.35;4.55;;;;;;;16.23;100.00;156597.84;4995221;28;20033;-81
2022/10/22 10:02:17;;;;;;;11.60;3.88;;;;;;;16.25;100.00;156604.28;5009878;28;20033;-81
2022/10/22 10:04:53;;;;;;;12.60;4.43;;;;;;;16.29;100.00;156613.28;5005466;28;20030;-83
2022/10/22 10:07:22;;;;;;;7.80;3.67;;;;;;;16.35;100.00;156630.03;5027685;28;20029;-80
2022/10/22 10:09:50;;;;;;;13.40;3.60;;;;;;;16.45;100.00;156653.22;5011676;28;20116;-83
2022/10/22 10:12:51;;;;;;;9.10;3.30;;;;;;;16.51;100.00;156668.66;5027713;28;20044;-83
2022/10/22 10:15:44;;;;;;;6.13;2.78;;;;;;;16.61;100.00;156693.13;5009917;28;20045;-82
2022/10/22 10:18:46;;;;;;;11.90;3.08;;;;;;;16.76;100.00;156731.75;5026832;28;20038;-79
2022/10/22 10:21:22;;;;;;;15.83;3.30;;;;;;;16.99;100.00;156789.78;5010131;28;20093;-79
2022/10/22 10:24:10;;;;;;;10.07;3.10;;;;;;;16.93;100.00;156774.28;4985990;28;20071;-82
2022/10/22 10:27:01;;;;;;;12.75;3.05;;;;;;;17.15;100.00;156828.41;4994087;28;20081;-80
2022/10/22 10:29:46;;;;;;;7.60;2.75;;;;;;;17.19;100.00;156838.69;5024531;28;20500;-81
2022/10/22 10:32:36;;;;;;;9.77;2.25;;;;;;;17.16;100.00;156830.97;5026248;28;20479;-80
2022/10/22 10:35:10;;;;;;;8.10;2.15;;;;;;;17.26;100.00;156858.03;5009925;28;20038;-81
2022/10/22 10:37:44;;;;;;;7.00;2.30;;;;;;;17.34;100.00;156876.06;4986243;28;20038;-81
2022/10/22 10:40:16;;;;;;;8.82;2.20;;;;;;;17.41;100.00;156895.38;4987589;28;20041;-81
2022/10/22 10:42:54;;;;;;;9.80;2.25;;;;;;;17.42;100.00;156897.97;5006859;28;20087;-80
2022/10/22 10:45:41;;;;;;;9.65;2.50;;;;;;;17.56;100.00;156931.47;5021717;28;20109;-76
2022/10/22 10:48:17;;;;;;;9.30;2.38;;;;;;;17.61;100.00;156945.66;5003980;28;20038;-78
2022/10/22 10:50:57;;;;;;;9.60;2.10;;;;;;;17.70;100.00;156967.53;4987107;28;20033;-81
2022/10/22 10:53:41;;;;;;;14.55;2.60;;;;;;;17.73;100.00;156974.00;5007138;28;20041;-79
2022/10/22 10:56:31;;;;;;;8.75;2.30;;;;;;;17.87;100.00;157010.09;5022172;28;20044;-78
2022/10/22 10:59:24;;;;;;;9.25;2.63;;;;;;;17.84;100.00;157002.34;4995658;28;20104;-78
2022/10/22 11:02:01;;;;;;;6.72;2.50;;;;;;;17.82;100.00;156998.47;5000791;28;20091;-79
2022/10/22 11:04:42;;;;;;;13.40;2.58;;;;;;;17.91;100.00;157020.38;4991628;28;20093;-79
2022/10/22 11:07:14;;;;;;;7.78;2.90;;;;;;;17.94;100.00;157028.13;5020595;28;20463;-78
2022/10/22 11:09:47;;;;;;;12.68;3.55;;;;;;;18.01;100.00;157046.19;5008657;28;20044;-80
2022/10/22 11:12:21;;;;;;;14.10;2.60;;;;;;;18.07;100.00;157061.63;5004254;28;20116;-79
2022/10/22 11:15:03;;;;;;;7.15;2.42;;;;;;;18.15;100.00;157080.97;5023587;28;20492;-80
2022/10/22 11:17:38;;;;;;;;;;;;;;;18.19;100.00;157090.00;5009363;28;20041;-79
2022/10/22 11:20:28;;;;;;;8.82;2.30;;;;;;;18.16;100.00;157083.56;5027088;28;19931;-78